Bellville, Texas
Current Conditions -  °F | °C
As of 3:55 PM on Friday 24 Oct 2014 (Local Time) from K11R Reporting Station
Clear Clear  
Wind Chill: 83°   Ceiling: Unl
Heat Index: 83°   Visibility: 10mi
Dew Point: 56°   Wind: 3mph
Humidity: 39%   Direction: 350°N
Pressure: 30.1"   Gusts: NA
Location:  29.95°N, 96.26°W
Report Text: K11R 242055Z AUTO 35003KT 10SM CLR 28/13 A3010 RMK AO2 T02830132
Loading
Personal Weather Stations






























Interactive Weather Map
Tropical Storm Tracking
New forecast layout! Learn more

10-Day Weather Forecast

Advertisements
Track Severe Weather on mobile